Time;durP1;ratioP1;P1;durP2;ratioP2;P2;SDS_P1;SDS_P2;PMS_P1;PMS_P2;Temp;Humidity;BMP_temperature;BMP_pressure;BME280_temperature;BME280_humidity;BME280_pressure;Samples;Min_cycle;Max_cycle;Signal;HPM_P1;HPM_P2
2022/05/07 00:01:47;;;;;;;25.80;13.95;;;;;;;11.91;100.00;101442.34;4880147;29;20061;-79
2022/05/07 00:04:12;;;;;;;23.92;13.73;;;;;;;11.79;100.00;101421.44;4879339;29;20375;-79
2022/05/07 00:06:38;;;;;;;20.17;12.98;;;;;;;11.99;100.00;101458.41;4880990;29;20039;-79
2022/05/07 00:09:03;;;;;;;22.92;14.52;;;;;;;11.99;100.00;101450.31;4869325;29;20120;-79
2022/05/07 00:11:29;;;;;;;25.92;14.88;;;;;;;11.99;100.00;101454.88;4869213;29;20123;-79
2022/05/07 00:13:55;;;;;;;25.05;15.48;;;;;;;11.85;100.00;101431.47;4898867;29;20079;-78
2022/05/07 00:19:04;;;;;;;22.05;15.38;;;;;;;11.58;100.00;101379.97;4870111;29;20079;-79
2022/05/07 00:21:29;;;;;;;27.45;15.52;;;;;;;11.94;100.00;101438.44;4863248;29;20061;-79
2022/05/07 00:23:55;;;;;;;22.38;14.85;;;;;;;11.94;100.00;101433.88;4847362;29;20029;-79
2022/05/07 00:26:20;;;;;;;24.45;15.13;;;;;;;11.94;100.00;101433.88;4848037;29;20041;-78
2022/05/07 00:28:46;;;;;;;23.70;15.68;;;;;;;11.70;100.00;101399.16;4862218;29;20037;-79
2022/05/07 00:31:12;;;;;;;26.05;16.58;;;;;;;11.66;100.00;101408.66;4843722;29;20033;-79
2022/05/07 00:33:37;;;;;;;22.23;15.77;;;;;;;11.90;100.00;101442.53;4860769;29;20033;-79
2022/05/07 00:36:03;;;;;;;21.33;16.05;;;;;;;11.88;100.00;101440.03;4882424;29;20034;-79
2022/05/07 00:38:28;;;;;;;25.45;17.95;;;;;;;11.91;100.00;101441.50;4853257;29;20037;-79
2022/05/07 00:40:55;;;;;;;27.95;18.63;;;;;;;11.62;100.00;101397.44;4877537;29;20033;-79
2022/05/07 00:43:20;;;;;;;30.23;19.42;;;;;;;11.77;100.00;101425.16;4881049;29;20056;-79
2022/05/07 00:45:46;;;;;;;28.02;19.52;;;;;;;11.67;100.00;101408.47;4868439;29;20044;-79
2022/05/07 00:48:15;;;;;;;30.23;22.10;;;;;;;11.75;100.00;101427.22;4847751;29;20048;-78
2022/05/07 00:53:25;;;;;;;29.17;22.43;;;;;;;11.70;100.00;101415.34;4884741;29;20046;-78
2022/05/07 00:55:51;;;;;;;34.13;23.98;;;;;;;11.52;100.00;101399.59;4888921;29;20276;-79
2022/05/07 00:58:17;;;;;;;19.60;13.43;;;;;;;11.76;100.00;101441.53;4878693;29;20025;-78
2022/05/07 01:00:46;;;;;;;26.58;18.25;;;;;;;11.73;100.00;101445.44;4848749;29;20456;-78
2022/05/07 01:03:11;;;;;;;25.08;16.92;;;;;;;11.71;100.00;101439.41;4876093;29;20037;-79
2022/05/07 01:05:39;;;;;;;25.67;18.05;;;;;;;11.73;100.00;101441.94;4877982;29;20087;-78
2022/05/07 01:08:05;;;;;;;19.45;14.75;;;;;;;11.34;100.00;101389.25;4862195;29;20029;-78
2022/05/07 01:10:31;;;;;;;11.70;8.52;;;;;;;11.51;100.00;101438.34;4853499;29;20045;-79
2022/05/07 01:12:57;;;;;;;12.63;8.25;;;;;;;11.42;100.00;101434.09;4862256;29;20069;-79
2022/05/07 01:15:24;;;;;;;12.77;6.65;;;;;;;11.50;100.00;101450.16;4859143;29;20061;-78
2022/05/07 01:17:50;;;;;;;11.18;5.18;;;;;;;11.43;100.00;101452.78;4859861;29;20030;-78
2022/05/07 01:20:15;;;;;;;9.05;4.18;;;;;;;11.38;100.00;101443.59;4865907;29;20020;-78
2022/05/07 01:22:41;;;;;;;7.22;3.45;;;;;;;11.37;100.00;101450.84;4889491;29;20051;-78
2022/05/07 01:25:07;;;;;;;5.95;2.85;;;;;;;11.30;100.00;101449.91;4865615;29;20478;-79
2022/05/07 01:27:34;;;;;;;11.40;3.10;;;;;;;11.31;100.00;101448.06;4866589;29;20564;-79
2022/05/07 01:29:59;;;;;;;9.68;3.50;;;;;;;11.18;100.00;101424.47;4864634;29;20037;-78
2022/05/07 01:32:25;;;;;;;8.75;3.35;;;;;;;11.23;100.00;101435.53;4865916;29;20341;-79
2022/05/07 01:34:53;;;;;;;8.02;3.20;;;;;;;11.11;100.00;101419.00;4867927;29;20041;-78
2022/05/07 01:37:18;;;;;;;12.45;4.47;;;;;;;11.23;100.00;101441.75;4865348;29;20040;-78
2022/05/07 01:39:43;;;;;;;9.93;3.00;;;;;;;11.19;100.00;101436.91;4882124;29;20033;-79
2022/05/07 01:42:09;;;;;;;12.32;3.67;;;;;;;11.18;100.00;101440.63;4885553;29;20387;-78
2022/05/07 01:44:35;;;;;;;10.85;3.28;;;;;;;11.19;100.00;101437.78;4901298;29;20052;-78
2022/05/07 01:49:44;;;;;;;11.80;3.42;;;;;;;10.97;100.00;101403.72;4874878;29;20046;-78
2022/05/07 01:52:10;;;;;;;12.43;3.25;;;;;;;11.14;100.00;101429.41;4884599;29;20108;-78
2022/05/07 01:54:35;;;;;;;17.23;3.28;;;;;;;11.18;100.00;101424.47;4901123;29;20044;-78
2022/05/07 01:57:01;;;;;;;10.35;2.83;;;;;;;11.15;100.00;101428.38;4899348;29;20091;-78
2022/05/07 01:59:26;;;;;;;7.90;2.65;;;;;;;11.15;100.00;101424.84;4900643;29;20047;-78
2022/05/07 02:01:52;;;;;;;10.25;2.63;;;;;;;11.13;100.00;101425.06;4899016;29;20036;-78
2022/05/07 02:04:17;;;;;;;10.88;2.95;;;;;;;11.12;100.00;101431.44;4869328;29;20043;-78
2022/05/07 02:06:42;;;;;;;12.98;3.45;;;;;;;10.95;100.00;101400.34;4867773;29;20047;-78
2022/05/07 02:09:10;;;;;;;10.77;3.10;;;;;;;10.80;100.00;101371.59;4883692;29;20043;-78
2022/05/07 02:11:35;;;;;;;16.25;3.10;;;;;;;11.11;100.00;101426.25;4868453;29;20064;-78
2022/05/07 02:14:01;;;;;;;10.38;3.10;;;;;;;10.73;100.00;101381.44;4883334;29;20115;-78
2022/05/07 02:16:26;;;;;;;10.00;2.20;;;;;;;11.05;100.00;101427.84;4867959;29;20097;-79
2022/05/07 02:18:51;;;;;;;12.60;2.50;;;;;;;11.01;100.00;101435.44;4868305;29;20041;-78
2022/05/07 02:21:16;;;;;;;8.90;2.30;;;;;;;11.03;100.00;101438.81;4879757;29;20029;-78
2022/05/07 02:23:42;;;;;;;10.70;2.38;;;;;;;10.86;100.00;101414.94;4881491;29;20352;-79
2022/05/07 02:26:07;;;;;;;8.48;1.95;;;;;;;10.81;100.00;101405.56;4867835;29;20108;-79
2022/05/07 02:28:33;;;;;;;10.25;2.10;;;;;;;10.84;100.00;101422.38;4883317;29;20459;-78
2022/05/07 02:30:58;;;;;;;5.90;1.83;;;;;;;10.70;100.00;101406.03;4900260;29;20029;-78
2022/05/07 02:33:25;;;;;;;11.65;2.00;;;;;;;10.83;100.00;101432.31;4887746;29;20034;-77
2022/05/07 02:35:50;;;;;;;12.43;2.05;;;;;;;10.84;100.00;101427.75;4915124;29;20032;-78
2022/05/07 02:38:15;;;;;;;9.80;2.22;;;;;;;10.83;100.00;101418.84;4869193;29;20037;-79
2022/05/07 02:43:25;;;;;;;;;;;;;;;10.78;100.00;101437.41;4886076;29;20060;-78
2022/05/07 02:45:51;;;;;;;6.25;2.17;;;;;;;10.63;100.00;101433.84;4882953;29;19919;-78
2022/05/07 02:48:17;;;;;;;6.60;2.08;;;;;;;10.32;100.00;101371.09;4900316;29;20387;-78
2022/05/07 02:50:43;;;;;;;7.40;2.05;;;;;;;10.63;100.00;101436.53;4882593;29;20112;-78
2022/05/07 02:53:08;;;;;;;7.10;2.00;;;;;;;10.59;100.00;101438.78;4900922;29;20028;-78
2022/05/07 02:55:34;;;;;;;8.15;2.13;;;;;;;10.59;100.00;101436.06;4898595;29;20357;-78
2022/05/07 02:58:01;;;;;;;6.40;2.10;;;;;;;10.62;100.00;101438.41;4882961;29;20060;-78
2022/05/07 03:00:26;;;;;;;10.02;2.15;;;;;;;10.26;100.00;101376.38;4867261;29;20033;-78
2022/05/07 03:02:51;;;;;;;8.60;2.28;;;;;;;10.63;100.00;101441.94;4899817;29;20047;-78
2022/05/07 03:05:17;;;;;;;9.35;2.50;;;;;;;10.60;100.00;101443.16;4882045;29;20028;-79
2022/05/07 03:07:42;;;;;;;9.25;2.63;;;;;;;10.30;100.00;101399.22;4868056;29;20041;-78
2022/05/07 03:10:08;;;;;;;12.48;2.53;;;;;;;10.62;100.00;101443.78;4899089;29;20024;-79
2022/05/07 03:12:34;;;;;;;10.70;2.50;;;;;;;10.39;100.00;101410.72;4882755;29;20041;-78
2022/05/07 03:15:01;;;;;;;8.65;2.17;;;;;;;10.46;100.00;101427.78;4866998;29;20029;-79
2022/05/07 03:17:26;;;;;;;11.88;2.88;;;;;;;10.60;100.00;101453.09;4900973;29;20028;-78
2022/05/07 03:19:52;;;;;;;11.48;2.55;;;;;;;10.47;100.00;101430.31;4899898;29;20091;-78
2022/05/07 03:22:17;;;;;;;10.50;2.35;;;;;;;10.43;100.00;101428.16;4867733;29;20036;-78
2022/05/07 03:24:43;;;;;;;14.38;2.72;;;;;;;10.63;100.00;101452.69;4899864;29;20051;-78
2022/05/07 03:27:08;;;;;;;7.97;2.30;;;;;;;10.67;100.00;101446.78;4867446;29;20043;-79
2022/05/07 03:29:34;;;;;;;12.18;2.88;;;;;;;10.56;100.00;101437.31;4897421;29;20112;-78
2022/05/07 03:31:59;;;;;;;10.88;2.65;;;;;;;10.68;100.00;101456.50;4897508;29;20046;-78
2022/05/07 03:34:24;;;;;;;18.98;3.35;;;;;;;10.21;100.00;101379.59;4897181;29;20032;-78
2022/05/07 03:36:50;;;;;;;8.18;2.53;;;;;;;10.15;100.00;101382.19;4899353;29;20064;-78
2022/05/07 03:39:16;;;;;;;9.57;2.80;;;;;;;10.42;100.00;101415.75;4883725;29;20124;-78
2022/05/07 03:41:41;;;;;;;10.93;3.28;;;;;;;10.60;100.00;101464.69;4900546;29;20091;-78
2022/05/07 03:44:08;;;;;;;18.80;3.38;;;;;;;10.63;100.00;101456.25;4871680;29;20040;-78
2022/05/07 03:46:34;;;;;;;13.60;3.10;;;;;;;10.48;100.00;101440.06;4908195;29;20052;-78
2022/05/07 03:48:59;;;;;;;13.50;3.00;;;;;;;10.50;100.00;101443.41;4883453;29;20036;-78
2022/05/07 03:51:25;;;;;;;13.38;2.70;;;;;;;10.52;100.00;101448.59;4867189;29;20088;-79
2022/05/07 03:53:50;;;;;;;15.52;3.10;;;;;;;10.65;100.00;101464.94;4882635;29;20064;-78
2022/05/07 03:56:16;;;;;;;13.32;3.53;;;;;;;10.60;100.00;101461.16;4867236;29;20048;-78
2022/05/07 03:58:41;;;;;;;16.45;3.38;;;;;;;10.58;100.00;101477.47;4897046;29;20044;-78
2022/05/07 04:01:08;;;;;;;20.40;3.45;;;;;;;10.23;100.00;101407.16;4881982;29;20111;-79
2022/05/07 04:03:34;;;;;;;16.20;3.20;;;;;;;10.61;100.00;101469.03;4881421;29;20059;-78
2022/05/07 04:06:00;;;;;;;13.27;3.55;;;;;;;10.56;100.00;101468.72;4898400;29;20454;-79
2022/05/07 04:08:25;;;;;;;15.25;3.75;;;;;;;10.45;100.00;101458.44;4898237;29;20043;-79
2022/05/07 04:10:51;;;;;;;18.95;4.07;;;;;;;10.54;100.00;101463.56;4866689;29;20047;-79
2022/05/07 04:13:17;;;;;;;22.02;4.38;;;;;;;10.41;100.00;101451.75;4897805;29;20068;-79
2022/05/07 04:15:43;;;;;;;18.60;4.03;;;;;;;10.56;100.00;101468.72;4881953;29;20108;-79
2022/05/07 04:18:10;;;;;;;18.15;5.07;;;;;;;10.52;100.00;101480.88;4906486;29;20222;-79
2022/05/07 04:20:36;;;;;;;23.70;5.28;;;;;;;10.48;100.00;101474.19;4886647;29;20035;-79
2022/05/07 04:23:02;;;;;;;22.23;5.82;;;;;;;9.95;100.00;101398.81;4899248;29;20100;-79
2022/05/07 04:25:28;;;;;;;23.58;5.70;;;;;;;10.37;100.00;101470.09;4881284;29;20112;-79
2022/05/07 04:27:56;;;;;;;26.88;7.05;;;;;;;10.25;100.00;101442.75;4882515;29;20036;-79
2022/05/07 04:30:22;;;;;;;21.33;6.05;;;;;;;10.38;100.00;101446.72;4897412;29;20024;-78
2022/05/07 04:32:48;;;;;;;19.00;4.90;;;;;;;10.53;100.00;101485.28;4883326;29;20036;-79
2022/05/07 04:35:14;;;;;;;20.42;5.93;;;;;;;10.43;100.00;101455.06;4882533;29;20060;-79
2022/05/07 04:37:39;;;;;;;24.55;6.07;;;;;;;10.44;100.00;101456.75;4878509;29;20084;-79
2022/05/07 04:40:06;;;;;;;26.02;6.57;;;;;;;10.46;100.00;101457.41;4890162;29;20095;-79
2022/05/07 04:42:32;;;;;;;19.98;5.63;;;;;;;10.57;100.00;101479.34;4890401;29;20063;-78
2022/05/07 04:44:59;;;;;;;21.75;6.20;;;;;;;10.45;100.00;101442.28;4862942;29;20088;-80
2022/05/07 04:47:25;;;;;;;28.70;6.20;;;;;;;10.66;100.00;101482.78;4861529;29;20048;-78
2022/05/07 04:49:50;;;;;;;31.08;6.55;;;;;;;10.69;100.00;101484.25;4881466;29;20459;-78
2022/05/07 04:52:15;;;;;;;26.85;5.88;;;;;;;10.49;100.00;101454.34;4875898;29;20044;-78
2022/05/07 04:54:42;;;;;;;22.95;6.07;;;;;;;10.69;100.00;101495.84;4880546;29;20051;-78
2022/05/07 04:57:07;;;;;;;28.05;5.28;;;;;;;10.62;100.00;101480.63;4856014;29;20061;-78
2022/05/07 04:59:33;;;;;;;24.23;6.03;;;;;;;10.70;100.00;101494.03;4866154;29;20026;-78
2022/05/07 05:01:58;;;;;;;18.15;5.40;;;;;;;10.73;100.00;101488.28;4882016;29;20360;-78
2022/05/07 05:04:23;;;;;;;18.40;5.53;;;;;;;10.55;100.00;101473.28;4862944;29;20123;-78
2022/05/07 05:06:49;;;;;;;16.75;4.40;;;;;;;10.73;100.00;101497.19;4876757;29;20037;-79
2022/05/07 05:09:14;;;;;;;21.77;5.85;;;;;;;10.72;100.00;101473.97;4846891;29;20044;-78
2022/05/07 05:11:43;;;;;;;19.50;5.50;;;;;;;10.93;100.00;101497.50;4863755;29;20044;-78
2022/05/07 05:16:52;;;;;;;30.80;7.78;;;;;;;10.93;100.00;101496.66;4878516;29;20096;-79
2022/05/07 05:19:19;;;;;;;22.58;5.95;;;;;;;11.02;100.00;101498.22;4869583;29;20025;-79
2022/05/07 05:21:45;;;;;;;21.13;6.53;;;;;;;10.99;100.00;101498.59;4882659;29;20047;-78
2022/05/07 05:24:11;;;;;;;21.08;5.90;;;;;;;10.99;100.00;101495.91;4881900;29;20036;-78
2022/05/07 05:26:36;;;;;;;27.63;6.57;;;;;;;11.11;100.00;101507.88;4882981;29;20044;-78
2022/05/07 05:29:02;;;;;;;31.48;7.78;;;;;;;11.15;100.00;101514.56;4865289;29;20072;-78
2022/05/07 05:31:31;;;;;;;24.10;6.20;;;;;;;11.14;100.00;101517.47;4865842;29;20199;-78
2022/05/07 05:33:57;;;;;;;25.10;5.75;;;;;;;11.16;100.00;101513.56;4881233;29;20471;-77
2022/05/07 05:36:24;;;;;;;30.38;7.15;;;;;;;11.17;100.00;101512.53;4865952;29;20142;-78
2022/05/07 05:38:49;;;;;;;30.77;7.78;;;;;;;11.15;100.00;101524.50;4852205;29;20028;-79
2022/05/07 05:41:14;;;;;;;28.48;7.25;;;;;;;11.12;100.00;101520.31;4865456;29;20035;-78
2022/05/07 05:43:40;;;;;;;26.23;6.47;;;;;;;11.05;100.00;101503.25;4900740;29;20467;-79
2022/05/07 05:46:06;;;;;;;25.20;6.78;;;;;;;11.13;100.00;101518.50;4888006;29;20032;-79
2022/05/07 05:48:31;;;;;;;26.15;6.18;;;;;;;10.97;100.00;101485.31;4887212;29;20052;-79
2022/05/07 05:50:57;;;;;;;32.50;7.38;;;;;;;11.26;100.00;101518.69;4891099;29;20071;-78
2022/05/07 05:53:22;;;;;;;38.95;7.40;;;;;;;11.29;100.00;101524.53;4884690;29;20039;-78
2022/05/07 05:55:49;;;;;;;34.65;7.47;;;;;;;11.33;100.00;101530.38;4884631;29;20037;-78
2022/05/07 05:58:15;;;;;;;30.13;8.25;;;;;;;11.35;100.00;101525.63;4857829;29;20057;-80
2022/05/07 06:00:41;;;;;;;32.95;6.95;;;;;;;11.31;100.00;101501.94;4873096;29;20454;-79
2022/05/07 06:03:06;;;;;;;26.92;6.60;;;;;;;11.28;100.00;101514.75;4901563;29;20119;-80
2022/05/07 06:05:32;;;;;;;30.73;6.55;;;;;;;11.22;100.00;101499.31;4904342;29;20039;-82
2022/05/07 06:07:57;;;;;;;30.27;7.88;;;;;;;11.46;100.00;101530.56;4887229;29;20128;-79
2022/05/07 06:10:22;;;;;;;24.73;6.95;;;;;;;11.45;100.00;101512.69;4901279;29;20458;-78
2022/05/07 06:12:48;;;;;;;25.55;6.68;;;;;;;11.47;100.00;101517.91;4911325;29;20053;-78
2022/05/07 06:15:13;;;;;;;26.98;6.30;;;;;;;11.67;100.00;101523.56;4900388;29;20075;-79
2022/05/07 06:17:39;;;;;;;25.80;6.60;;;;;;;11.74;100.00;101524.47;4869269;29;20037;-78
2022/05/07 06:20:05;;;;;;;26.40;6.22;;;;;;;11.94;100.00;101530.13;4882844;29;20115;-78
2022/05/07 06:22:30;;;;;;;22.23;5.65;;;;;;;12.12;100.00;101532.38;4884751;29;20139;-77
2022/05/07 06:27:39;;;;;;;20.20;4.95;;;;;;;12.08;100.00;101531.09;4887616;29;20043;-79
2022/05/07 06:30:06;;;;;;;21.33;5.53;;;;;;;12.17;100.00;101541.56;4863321;29;20120;-78
2022/05/07 06:32:31;;;;;;;21.13;5.43;;;;;;;12.15;100.00;101537.41;4882195;29;20048;-79
2022/05/07 06:34:57;;;;;;;17.65;5.18;;;;;;;12.23;100.00;101545.38;4884379;29;20024;-77
2022/05/07 06:37:22;;;;;;;24.02;4.85;;;;;;;11.75;100.00;101470.38;4900394;29;20051;-78
2022/05/07 06:39:47;;;;;;;22.90;5.28;;;;;;;12.30;100.00;101543.59;4883340;29;20037;-78
2022/05/07 06:42:15;;;;;;;20.73;4.75;;;;;;;12.30;100.00;101548.97;4882850;29;20051;-78
2022/05/07 06:44:41;;;;;;;12.85;4.05;;;;;;;12.50;100.00;101551.88;4867805;29;20180;-78
2022/05/07 06:47:06;;;;;;;19.80;4.95;;;;;;;12.56;100.00;101551.09;4883981;29;20471;-78
2022/05/07 06:49:31;;;;;;;17.55;4.72;;;;;;;12.35;100.00;101549.25;4883726;29;20040;-78
2022/05/07 06:51:57;;;;;;;17.80;4.75;;;;;;;12.44;100.00;101564.28;4898725;29;20484;-78
2022/05/07 06:54:22;;;;;;;13.35;3.60;;;;;;;12.32;100.00;101555.03;4880865;29;20379;-78
2022/05/07 06:56:47;;;;;;;14.65;4.22;;;;;;;12.35;100.00;101567.28;4881983;29;20084;-79
2022/05/07 06:59:13;;;;;;;17.17;4.78;;;;;;;12.60;100.00;101562.34;4849796;29;20040;-78
2022/05/07 07:01:39;;;;;;;19.60;4.53;;;;;;;12.34;100.00;101535.94;4884543;29;20116;-78
2022/05/07 07:04:04;;;;;;;12.95;3.83;;;;;;;12.44;100.00;101553.47;4886999;29;20123;-78
2022/05/07 07:06:30;;;;;;;15.57;5.15;;;;;;;12.46;100.00;101547.91;4881818;29;20164;-78
2022/05/07 07:08:56;;;;;;;17.60;4.50;;;;;;;12.53;100.00;101562.28;4886878;29;20024;-79
2022/05/07 07:11:22;;;;;;;20.05;4.88;;;;;;;12.51;100.00;101567.03;4885790;29;20029;-78
2022/05/07 07:13:49;;;;;;;17.02;4.57;;;;;;;12.49;100.00;101569.09;4902474;29;20467;-78
2022/05/07 07:16:15;;;;;;;13.50;4.18;;;;;;;12.31;100.00;101557.91;4898278;29;20092;-79
2022/05/07 07:18:41;;;;;;;19.55;4.80;;;;;;;12.07;100.00;101538.38;4897074;29;20043;-78
2022/05/07 07:21:06;;;;;;;17.80;4.22;;;;;;;12.32;100.00;101570.41;4898009;29;20442;-78
2022/05/07 07:23:32;;;;;;;19.25;4.78;;;;;;;12.42;100.00;101579.00;4897547;29;20032;-78
2022/05/07 07:25:57;;;;;;;13.80;4.40;;;;;;;12.38;100.00;101588.50;4898664;29;20029;-78
2022/05/07 07:28:24;;;;;;;16.10;4.43;;;;;;;12.43;100.00;101584.19;4882239;29;20036;-78
2022/05/07 07:30:51;;;;;;;15.73;4.68;;;;;;;12.70;100.00;101579.06;4880536;29;20028;-78
2022/05/07 07:33:18;;;;;;;14.52;3.92;;;;;;;12.58;100.00;101592.25;4883045;29;20451;-78
2022/05/07 07:35:43;;;;;;;20.92;3.95;;;;;;;12.56;100.00;101588.06;4882869;29;20668;-78
2022/05/07 07:38:09;;;;;;;12.70;3.63;;;;;;;12.76;100.00;101589.09;4899186;29;20074;-78
2022/05/07 07:40:35;;;;;;;14.50;3.80;;;;;;;12.63;100.00;101553.84;4866613;29;20076;-77
2022/05/07 07:43:01;;;;;;;16.48;4.40;;;;;;;12.61;100.00;101564.84;4899595;29;20067;-79
2022/05/07 07:48:10;;;;;;;13.68;4.13;;;;;;;12.52;100.00;101559.78;4899785;29;20103;-78
2022/05/07 07:50:38;;;;;;;18.50;3.70;;;;;;;12.78;100.00;101588.88;4897700;29;20037;-78
2022/05/07 07:53:26;;;;;;;14.40;3.75;;;;;;;12.69;100.00;101589.03;4896130;29;20084;-79
2022/05/07 07:55:51;;;;;;;16.52;4.10;;;;;;;12.84;100.00;101590.81;4897425;29;20032;-78
2022/05/07 07:58:17;;;;;;;14.98;3.67;;;;;;;12.62;100.00;101565.69;4882703;29;20044;-78
2022/05/07 08:00:44;;;;;;;16.02;3.60;;;;;;;12.98;100.00;101592.59;4897111;29;20269;-80
2022/05/07 08:03:15;;;;;;;20.25;4.18;;;;;;;12.99;100.00;101596.97;4866834;29;20060;-77
2022/05/07 08:05:43;;;;;;;13.15;4.38;;;;;;;13.08;100.00;101600.38;4896708;29;20096;-78
2022/05/07 08:13:47;;;;;;;15.68;3.70;;;;;;;12.96;100.00;101583.00;4889888;29;20054;-80
2022/05/07 08:16:15;;;;;;;17.50;3.70;;;;;;;13.07;100.00;101604.91;4899107;29;20039;-79
2022/05/07 08:18:41;;;;;;;15.52;4.22;;;;;;;13.19;100.00;101607.91;4908734;29;20056;-78
2022/05/07 08:21:08;;;;;;;14.90;3.83;;;;;;;13.23;100.00;101603.78;4897015;29;20036;-78
2022/05/07 08:23:34;;;;;;;11.40;3.08;;;;;;;13.22;100.00;101609.41;4883932;29;20036;-79
2022/05/07 08:26:04;;;;;;;21.17;4.20;;;;;;;12.43;100.00;101464.59;4896701;29;20042;-77
2022/05/07 08:28:31;;;;;;;18.05;4.57;;;;;;;13.47;100.00;101612.50;4881251;29;20036;-79
2022/05/07 08:30:57;;;;;;;18.50;4.13;;;;;;;13.50;100.00;101612.09;4881449;29;20049;-79
2022/05/07 08:33:22;;;;;;;15.35;3.15;;;;;;;13.41;100.00;101603.34;4882340;29;20088;-78
2022/05/07 08:35:48;;;;;;;16.08;3.67;;;;;;;13.72;100.00;101616.41;4880877;29;20028;-77
2022/05/07 08:38:14;;;;;;;15.40;3.90;;;;;;;13.74;100.00;101597.25;4866718;29;20044;-78
2022/05/07 08:40:40;;;;;;;16.08;3.92;;;;;;;13.79;100.00;101608.31;4866470;29;20202;-78
2022/05/07 08:43:06;;;;;;;15.93;3.53;;;;;;;13.67;100.00;101558.53;4881831;29;20064;-79
2022/05/07 08:45:33;;;;;;;19.85;4.30;;;;;;;14.05;100.00;101627.38;4897877;29;20028;-77
2022/05/07 08:47:59;;;;;;;13.13;3.28;;;;;;;14.07;100.00;101622.59;4880468;29;20029;-78
2022/05/07 08:50:26;;;;;;;10.60;3.08;;;;;;;13.96;100.00;101614.22;4897415;29;20039;-78
2022/05/07 08:52:53;;;;;;;20.25;4.38;;;;;;;13.90;100.00;101615.03;4897598;29;20032;-77
2022/05/07 08:55:20;;;;;;;16.17;3.30;;;;;;;13.62;100.00;101587.00;4885464;29;20032;-78
2022/05/07 08:57:50;;;;;;;16.63;3.38;;;;;;;13.88;100.00;101636.06;4902919;29;20024;-78
2022/05/07 09:00:18;;;;;;;13.60;3.20;;;;;;;13.66;100.00;101616.38;4885302;29;20033;-77
2022/05/07 09:02:55;;;;;;;16.23;3.83;;;;;;;13.47;100.00;101634.97;4901806;29;20058;-77
2022/05/07 09:05:22;;;;;;;13.60;3.42;;;;;;;13.61;100.00;101634.03;4885011;29;20036;-77
2022/05/07 09:07:56;;;;;;;15.98;3.10;;;;;;;13.79;100.00;101621.84;4885071;29;20459;-77
2022/05/07 09:10:26;;;;;;;12.70;3.47;;;;;;;13.81;100.00;101623.31;4884218;29;20458;-76
2022/05/07 09:12:52;;;;;;;15.77;3.63;;;;;;;13.92;100.00;101632.72;4897548;29;20412;-76
2022/05/07 09:15:17;;;;;;;17.92;3.15;;;;;;;13.67;100.00;101628.84;4894285;29;20037;-81
2022/05/07 09:17:46;;;;;;;12.88;3.30;;;;;;;13.69;100.00;101630.31;4864784;29;20595;-77
2022/05/07 09:20:14;;;;;;;19.90;3.83;;;;;;;13.72;100.00;101632.63;4899492;29;20498;-76
2022/05/07 09:23:00;;;;;;;13.80;3.25;;;;;;;13.63;100.00;101628.41;4897706;29;20043;-78
2022/05/07 09:25:26;;;;;;;15.10;3.80;;;;;;;12.96;100.00;101520.88;4895301;29;20103;-77
2022/05/07 09:27:57;;;;;;;18.45;3.22;;;;;;;13.62;100.00;101632.16;4883115;29;20021;-78
2022/05/07 09:30:32;;;;;;;15.52;3.17;;;;;;;13.60;100.00;101635.03;4897625;29;20029;-77
2022/05/07 09:32:58;;;;;;;13.82;3.08;;;;;;;13.52;100.00;101634.38;4881969;29;20063;-77
2022/05/07 09:38:12;;;;;;;12.77;2.88;;;;;;;13.37;100.00;101608.28;4899320;29;20542;-77
2022/05/07 09:40:44;;;;;;;12.15;3.10;;;;;;;13.29;100.00;101604.91;4904829;29;20394;-79
2022/05/07 09:43:13;;;;;;;14.32;3.30;;;;;;;13.48;100.00;101633.13;4882354;29;20104;-77
2022/05/07 09:45:40;;;;;;;15.43;3.30;;;;;;;13.47;100.00;101642.25;4866422;29;20029;-77
2022/05/07 09:48:06;;;;;;;15.05;3.42;;;;;;;13.52;100.00;101648.72;4859298;29;20518;-77
2022/05/07 09:58:44;;;;;;;12.27;2.83;;;;;;;13.28;100.00;101646.50;4877900;29;20121;-76
2022/05/07 10:01:22;;;;;;;10.90;3.03;;;;;;;13.32;100.00;101640.47;4878603;29;20017;-77
2022/05/07 10:04:33;;;;;;;16.90;3.58;;;;;;;13.35;100.00;101640.09;4881919;29;20029;-78
2022/05/07 10:07:16;;;;;;;11.43;3.28;;;;;;;13.15;100.00;101607.47;4866552;29;20025;-77
2022/05/07 10:10:02;;;;;;;9.40;2.92;;;;;;;13.36;100.00;101638.22;4880170;29;20028;-76
2022/05/07 10:12:28;;;;;;;12.63;2.95;;;;;;;13.55;100.00;101644.81;4863339;29;20068;-77
2022/05/07 10:15:05;;;;;;;14.10;2.92;;;;;;;13.46;100.00;101654.94;4862182;29;20468;-77
2022/05/07 10:17:30;;;;;;;11.77;2.90;;;;;;;13.57;100.00;101646.25;4862512;29;20029;-78
2022/05/07 10:20:09;;;;;;;12.38;2.70;;;;;;;13.58;100.00;101656.06;4848592;29;20036;-78
2022/05/07 10:22:34;;;;;;;12.07;2.85;;;;;;;13.60;100.00;101661.25;4878241;29;20455;-77
2022/05/07 10:25:06;;;;;;;10.13;2.83;;;;;;;13.58;100.00;101629.03;4880531;29;20025;-76
2022/05/07 10:27:33;;;;;;;12.32;3.60;;;;;;;13.72;100.00;101658.84;4894042;29;20061;-75
2022/05/07 10:30:23;;;;;;;8.43;2.38;;;;;;;13.61;100.00;101620.50;4898243;29;20028;-76
2022/05/07 10:33:07;;;;;;;12.57;2.65;;;;;;;13.80;100.00;101656.78;4874649;29;20040;-76
2022/05/07 10:35:51;;;;;;;10.65;2.70;;;;;;;13.68;100.00;101649.47;4880807;29;20043;-76
2022/05/07 10:38:23;;;;;;;9.80;2.25;;;;;;;13.99;100.00;101652.53;4881599;29;20043;-76
2022/05/07 10:41:03;;;;;;;8.45;2.33;;;;;;;13.87;100.00;101662.25;4880536;29;20021;-76
2022/05/07 10:43:39;;;;;;;9.70;2.08;;;;;;;14.08;100.00;101662.16;4882634;29;20075;-76
2022/05/07 10:46:07;;;;;;;7.07;1.83;;;;;;;13.82;100.00;101643.91;4863884;29;20063;-77
2022/05/07 10:48:50;;;;;;;11.10;2.67;;;;;;;14.07;100.00;101657.78;4887370;29;20469;-78
2022/05/07 10:51:26;;;;;;;8.93;2.38;;;;;;;14.06;100.00;101664.22;4850198;29;20136;-77
2022/05/07 10:53:52;;;;;;;6.25;1.63;;;;;;;13.90;100.00;101672.66;4880864;29;20092;-76
2022/05/07 10:56:19;;;;;;;8.63;2.00;;;;;;;14.00;100.00;101667.72;4865796;29;20400;-77
2022/05/07 10:58:53;;;;;;;6.47;1.88;;;;;;;14.02;100.00;101664.84;4865499;29;20033;-76
2022/05/07 11:01:21;;;;;;;8.35;2.00;;;;;;;13.94;100.00;101668.56;4897147;29;20024;-76
2022/05/07 11:03:48;;;;;;;6.70;1.63;;;;;;;13.88;100.00;101680.16;4896614;29;20096;-75
2022/05/07 11:06:13;;;;;;;8.77;2.05;;;;;;;13.75;100.00;101674.69;4899087;29;20033;-76
2022/05/07 11:08:53;;;;;;;5.72;1.83;;;;;;;13.79;100.00;101649.72;4892619;29;20400;-76
2022/05/07 11:11:18;;;;;;;6.38;1.90;;;;;;;14.04;100.00;101679.84;4872211;29;20032;-76
2022/05/07 11:13:44;;;;;;;6.85;1.90;;;;;;;14.12;100.00;101691.53;4881216;29;20041;-76
2022/05/07 11:16:10;;;;;;;8.10;2.30;;;;;;;14.22;100.00;101659.50;4879176;29;20044;-76
2022/05/07 11:18:36;;;;;;;6.15;1.77;;;;;;;14.27;100.00;101684.09;4880826;29;20081;-76
2022/05/07 11:21:04;;;;;;;10.75;1.80;;;;;;;14.39;100.00;101696.00;4860801;29;21259;-76
2022/05/07 11:23:36;;;;;;;10.80;2.30;;;;;;;14.54;100.00;101691.31;4877860;29;20034;-76
2022/05/07 11:26:17;;;;;;;7.93;1.88;;;;;;;14.58;100.00;101691.75;4878294;29;20033;-77
2022/05/07 11:28:44;;;;;;;7.95;2.03;;;;;;;14.51;100.00;101690.88;4866339;29;20104;-76
2022/05/07 11:31:25;;;;;;;5.63;1.65;;;;;;;14.53;100.00;101694.22;4870794;29;20075;-76
2022/05/07 11:34:08;;;;;;;6.63;2.10;;;;;;;14.34;100.00;101701.22;4871029;29;20030;-76
2022/05/07 11:36:34;;;;;;;6.43;1.80;;;;;;;14.26;100.00;101685.97;4894330;29;20107;-76
2022/05/07 11:39:02;;;;;;;8.90;1.88;;;;;;;14.40;100.00;101697.66;4880887;29;20031;-77
2022/05/07 11:41:30;;;;;;;8.25;1.70;;;;;;;14.36;100.00;101698.28;4885120;29;20025;-76
2022/05/07 11:46:56;;;;;;;7.10;1.88;;;;;;;14.23;100.00;101693.66;4874181;29;20580;-76
2022/05/07 11:49:46;;;;;;;5.75;1.63;;;;;;;14.15;100.00;101685.72;4900168;29;20090;-76